createdAt,value
2023-01-29T00:00:22.423Z,48.76
2023-01-29T00:02:50.951Z,48.85
2023-01-29T00:05:28.021Z,49.05
2023-01-29T00:07:57.399Z,48.83
2023-01-29T00:10:26.486Z,48.73
2023-01-29T00:12:57.542Z,48.20
2023-01-29T00:15:25.935Z,48.40
2023-01-29T00:17:54.636Z,48.49
2023-01-29T00:20:23.072Z,48.25
2023-01-29T00:22:51.875Z,47.97
2023-01-29T00:25:20.275Z,47.82
2023-01-29T00:27:49.166Z,47.94
2023-01-29T00:30:20.219Z,47.90
2023-01-29T00:32:49.066Z,48.37
2023-01-29T00:35:17.800Z,48.52
2023-01-29T00:37:46.746Z,49.40
2023-01-29T00:40:18.339Z,49.25
2023-01-29T00:43:06.822Z,48.83
2023-01-29T00:45:37.124Z,48.27
2023-01-29T00:48:07.444Z,48.75
2023-01-29T00:50:39.254Z,49.54
2023-01-29T00:53:08.118Z,49.50
2023-01-29T00:55:37.021Z,49.23
2023-01-29T00:58:06.133Z,49.17
2023-01-29T01:00:34.721Z,49.23
2023-01-29T01:03:05.835Z,49.10
2023-01-29T01:05:35.600Z,49.64
2023-01-29T01:08:25.362Z,50.16
2023-01-29T01:11:05.804Z,50.29
2023-01-29T01:13:34.462Z,49.89
2023-01-29T01:16:08.881Z,49.75
2023-01-29T01:18:38.338Z,50.08
2023-01-29T01:21:07.089Z,50.24
2023-01-29T01:23:35.839Z,50.13
2023-01-29T01:26:09.444Z,50.04
2023-01-29T01:28:39.861Z,50.25
2023-01-29T01:31:10.567Z,50.11
2023-01-29T01:33:39.237Z,50.22
2023-01-29T01:36:10.064Z,50.19
2023-01-29T01:38:44.852Z,50.15
2023-01-29T01:41:18.639Z,50.36
2023-01-29T01:43:51.313Z,50.23
2023-01-29T01:46:20.530Z,50.20
2023-01-29T01:48:53.574Z,50.73
2023-01-29T01:51:22.639Z,50.80
2023-01-29T01:53:58.455Z,50.92
2023-01-29T01:56:29.628Z,51.55
2023-01-29T01:58:58.389Z,51.40
2023-01-29T02:01:28.260Z,51.01
2023-01-29T02:04:20.886Z,51.35
2023-01-29T02:07:08.371Z,51.59
2023-01-29T02:10:11.764Z,51.42
2023-01-29T02:12:40.841Z,51.35
2023-01-29T02:15:10.031Z,51.51
2023-01-29T02:17:39.042Z,51.56
2023-01-29T02:20:25.018Z,51.66
2023-01-29T02:23:23.572Z,51.55
2023-01-29T02:26:31.158Z,52.25
2023-01-29T02:29:27.550Z,51.71
2023-01-29T02:31:59.052Z,51.70
2023-01-29T02:35:19.025Z,52.03
2023-01-29T02:37:54.934Z,53.33
2023-01-29T02:41:05.635Z,53.37
2023-01-29T02:43:56.144Z,53.27
2023-01-29T02:46:47.554Z,53.95
2023-01-29T02:49:25.506Z,53.58
2023-01-29T02:51:56.712Z,53.10
2023-01-29T02:54:46.556Z,53.28
2023-01-29T02:57:29.812Z,53.45
2023-01-29T03:00:19.148Z,53.12
2023-01-29T03:03:00.483Z,52.79
2023-01-29T03:05:32.914Z,53.27
2023-01-29T03:08:06.825Z,53.26
2023-01-29T03:10:40.568Z,53.46
2023-01-29T03:13:17.690Z,53.08
2023-01-29T03:15:48.674Z,52.56
2023-01-29T03:18:46.150Z,52.53
2023-01-29T03:21:43.879Z,52.92
2023-01-29T03:25:08.351Z,52.77
2023-01-29T03:28:14.489Z,52.17
2023-01-29T03:31:11.023Z,52.36
2023-01-29T03:34:18.498Z,51.92
2023-01-29T03:36:56.302Z,51.91
2023-01-29T03:39:28.668Z,51.67
2023-01-29T03:42:20.854Z,51.60
2023-01-29T03:44:55.225Z,51.61
2023-01-29T03:47:42.456Z,51.86
2023-01-29T03:50:17.874Z,51.95
2023-01-29T03:53:02.884Z,52.46
2023-01-29T03:55:43.294Z,52.35
2023-01-29T03:58:25.885Z,51.64
2023-01-29T04:00:57.009Z,51.53
2023-01-29T04:03:34.717Z,51.66
2023-01-29T04:06:43.450Z,51.94
2023-01-29T04:09:16.640Z,52.42
2023-01-29T04:11:48.758Z,52.06
2023-01-29T04:14:17.288Z,52.03
2023-01-29T04:16:50.315Z,52.48
2023-01-29T04:19:40.693Z,52.33
2023-01-29T04:22:39.665Z,52.21
2023-01-29T04:25:16.194Z,51.98
2023-01-29T04:28:12.178Z,51.88
2023-01-29T04:30:44.335Z,52.07
2023-01-29T04:33:31.599Z,51.66
2023-01-29T04:36:11.134Z,51.37
2023-01-29T04:39:17.587Z,51.84
2023-01-29T04:42:07.551Z,51.98
2023-01-29T04:44:45.450Z,51.98
2023-01-29T04:47:41.473Z,51.30
2023-01-29T04:50:35.933Z,51.42
2023-01-29T04:53:04.312Z,51.72
2023-01-29T04:55:36.971Z,51.51
2023-01-29T04:58:16.736Z,51.32
2023-01-29T05:00:45.855Z,51.03
2023-01-29T05:03:15.229Z,50.80
2023-01-29T05:05:45.961Z,50.72
2023-01-29T05:08:16.411Z,50.67
2023-01-29T05:10:45.972Z,51.05
2023-01-29T05:13:14.877Z,51.02
2023-01-29T05:15:53.175Z,50.57
2023-01-29T05:18:22.128Z,50.53
2023-01-29T05:20:51.318Z,50.52
2023-01-29T05:23:21.640Z,50.77
2023-01-29T05:25:50.988Z,50.83
2023-01-29T05:28:19.979Z,50.62
2023-01-29T05:30:50.424Z,50.29
2023-01-29T05:33:23.423Z,50.35
2023-01-29T05:35:51.903Z,50.44
2023-01-29T05:38:20.952Z,50.48
2023-01-29T05:40:49.415Z,50.58
2023-01-29T05:43:19.347Z,50.83
2023-01-29T05:45:57.601Z,50.77
2023-01-29T05:48:29.755Z,50.41
2023-01-29T05:51:04.687Z,50.05
2023-01-29T05:53:33.755Z,49.95
2023-01-29T05:56:03.294Z,50.00
2023-01-29T05:58:35.569Z,49.97
2023-01-29T06:01:15.371Z,50.36
2023-01-29T06:03:45.388Z,50.66
2023-01-29T06:06:17.602Z,50.72
2023-01-29T06:08:47.487Z,50.37
2023-01-29T06:11:18.464Z,50.32
2023-01-29T06:13:48.130Z,50.35
2023-01-29T06:16:16.690Z,50.25
2023-01-29T06:18:45.316Z,49.82
2023-01-29T06:21:14.080Z,49.51
2023-01-29T06:23:42.774Z,49.81
2023-01-29T06:26:12.935Z,50.03
2023-01-29T06:28:42.485Z,50.24
2023-01-29T06:31:31.395Z,49.78
2023-01-29T06:33:59.434Z,49.32
2023-01-29T06:36:27.906Z,49.39
2023-01-29T06:38:59.327Z,49.67
2023-01-29T06:41:28.836Z,49.47
2023-01-29T06:43:57.603Z,49.04
2023-01-29T06:46:26.099Z,48.91
2023-01-29T06:48:54.517Z,49.52
2023-01-29T06:51:25.259Z,49.76
2023-01-29T06:53:56.263Z,49.73
2023-01-29T06:56:24.733Z,49.65
2023-01-29T06:58:53.784Z,49.79
2023-01-29T07:01:35.060Z,49.84
2023-01-29T07:04:05.572Z,50.25
2023-01-29T07:06:34.089Z,49.42
2023-01-29T07:09:03.953Z,49.28
2023-01-29T07:11:38.201Z,49.47
2023-01-29T07:14:07.554Z,49.44
2023-01-29T07:16:36.233Z,49.57
2023-01-29T07:19:05.051Z,48.62
2023-01-29T07:21:34.713Z,48.71
2023-01-29T07:24:03.683Z,48.90
2023-01-29T07:26:32.169Z,49.00
2023-01-29T07:29:00.608Z,49.07
2023-01-29T07:31:29.465Z,49.19
2023-01-29T07:33:58.424Z,49.36
2023-01-29T07:36:28.647Z,50.02
2023-01-29T07:38:57.111Z,49.91
2023-01-29T07:41:26.978Z,50.40
2023-01-29T07:43:56.555Z,50.33
2023-01-29T07:46:24.963Z,49.87
2023-01-29T07:48:54.182Z,49.21
2023-01-29T07:51:22.915Z,49.00
2023-01-29T07:53:51.767Z,48.85
2023-01-29T07:56:23.419Z,48.89
2023-01-29T07:58:52.964Z,48.85
2023-01-29T08:01:21.416Z,49.71
2023-01-29T08:03:51.247Z,48.83
2023-01-29T08:06:20.152Z,49.20
2023-01-29T08:08:49.079Z,48.99
2023-01-29T08:11:18.454Z,48.23
2023-01-29T08:13:47.032Z,47.15
2023-01-29T08:16:15.604Z,47.22
2023-01-29T08:18:48.059Z,47.33
2023-01-29T08:21:17.159Z,47.58
2023-01-29T08:23:45.872Z,48.35
2023-01-29T08:26:14.219Z,48.58
2023-01-29T08:28:42.627Z,48.44
2023-01-29T08:31:16.183Z,48.57
2023-01-29T08:33:45.190Z,49.27
2023-01-29T08:36:13.945Z,48.58
2023-01-29T08:38:42.731Z,48.30
2023-01-29T08:41:12.475Z,48.56
2023-01-29T08:43:41.523Z,48.76
2023-01-29T08:46:10.028Z,48.57
2023-01-29T08:48:38.910Z,48.16
2023-01-29T08:51:07.599Z,48.35
2023-01-29T08:53:39.101Z,48.35
2023-01-29T08:56:07.771Z,48.90
2023-01-29T08:58:37.248Z,48.18
2023-01-29T09:01:07.828Z,47.78
2023-01-29T09:03:36.470Z,47.66
2023-01-29T09:06:05.076Z,47.55
2023-01-29T09:08:38.283Z,47.34
2023-01-29T09:11:08.232Z,46.86
2023-01-29T09:13:36.679Z,46.64
2023-01-29T09:16:05.468Z,46.87
2023-01-29T09:18:33.807Z,46.65
2023-01-29T09:21:03.024Z,46.26
2023-01-29T09:23:31.627Z,46.30
2023-01-29T09:26:00.169Z,46.30
2023-01-29T09:28:29.253Z,45.73
2023-01-29T09:31:01.827Z,46.05
2023-01-29T09:33:31.297Z,45.85
2023-01-29T09:35:59.822Z,46.09
2023-01-29T09:38:28.613Z,46.50
2023-01-29T09:41:07.848Z,46.75
2023-01-29T09:43:48.470Z,45.86
2023-01-29T09:46:33.741Z,46.00
2023-01-29T09:49:06.541Z,46.47
2023-01-29T09:51:39.471Z,46.19
2023-01-29T09:54:26.395Z,45.82
2023-01-29T09:56:56.631Z,45.70
2023-01-29T09:59:27.340Z,45.37
2023-01-29T10:02:19.428Z,45.56
2023-01-29T10:05:06.566Z,44.60
2023-01-29T10:08:00.558Z,45.03
2023-01-29T10:10:37.450Z,45.23
2023-01-29T10:13:45.787Z,45.18
2023-01-29T10:16:32.732Z,45.37
2023-01-29T10:19:05.381Z,45.65
2023-01-29T10:21:49.256Z,45.53
2023-01-29T10:24:42.134Z,45.55
2023-01-29T10:27:15.764Z,45.75
2023-01-29T10:29:45.196Z,45.62
2023-01-29T10:32:19.200Z,45.60
2023-01-29T10:34:50.536Z,45.63
2023-01-29T10:37:28.128Z,45.03
2023-01-29T10:39:56.768Z,45.23
2023-01-29T10:42:39.813Z,45.11
2023-01-29T10:45:50.834Z,45.46
2023-01-29T10:48:35.589Z,45.53
2023-01-29T10:51:22.264Z,45.37
2023-01-29T10:54:15.183Z,46.18
2023-01-29T10:57:05.886Z,45.52
2023-01-29T10:59:40.384Z,46.24
2023-01-29T11:02:18.534Z,46.26
2023-01-29T11:04:47.565Z,45.53
2023-01-29T11:07:18.268Z,45.83
2023-01-29T11:10:08.593Z,45.96
2023-01-29T11:12:39.073Z,45.49
2023-01-29T11:15:13.322Z,45.37
2023-01-29T11:18:21.167Z,45.49
2023-01-29T11:21:00.754Z,45.92
2023-01-29T11:23:32.151Z,46.08
2023-01-29T11:26:00.841Z,46.94
2023-01-29T11:28:37.121Z,46.57
2023-01-29T11:31:22.108Z,46.46
2023-01-29T11:33:52.749Z,46.12
2023-01-29T11:36:35.512Z,46.01
2023-01-29T11:39:18.066Z,45.57
2023-01-29T11:41:51.195Z,45.52
2023-01-29T11:44:20.944Z,45.77
2023-01-29T11:46:49.853Z,45.99
2023-01-29T11:49:32.912Z,46.25
2023-01-29T11:52:03.385Z,45.97
2023-01-29T11:54:37.084Z,46.10
2023-01-29T11:57:20.927Z,45.96
2023-01-29T11:59:51.065Z,46.42
2023-01-29T12:02:19.969Z,46.62
2023-01-29T12:04:48.689Z,46.26
2023-01-29T12:07:18.412Z,46.64
2023-01-29T12:09:52.406Z,46.91
2023-01-29T12:12:32.359Z,47.54
2023-01-29T12:15:21.784Z,47.21
2023-01-29T12:18:33.921Z,47.86
2023-01-29T12:21:04.050Z,47.46
2023-01-29T12:23:50.362Z,47.41
2023-01-29T12:26:38.952Z,47.30
2023-01-29T12:29:16.558Z,47.00
2023-01-29T12:32:03.721Z,46.74
2023-01-29T12:35:06.943Z,46.79
2023-01-29T12:37:53.530Z,46.74
2023-01-29T12:40:40.857Z,47.38
2023-01-29T12:43:17.556Z,47.79
2023-01-29T12:45:49.531Z,48.42
2023-01-29T12:48:24.827Z,47.29
2023-01-29T12:50:54.417Z,46.35
2023-01-29T12:53:27.126Z,46.15
2023-01-29T12:56:02.374Z,46.45
2023-01-29T12:58:36.744Z,46.27
2023-01-29T13:01:18.232Z,46.47
2023-01-29T13:03:49.673Z,46.82
2023-01-29T13:06:21.721Z,46.53
2023-01-29T13:08:53.974Z,46.54
2023-01-29T13:11:29.659Z,46.48
2023-01-29T13:14:12.953Z,46.71
2023-01-29T13:16:43.563Z,46.97
2023-01-29T13:19:41.296Z,46.94
2023-01-29T13:22:20.400Z,46.59
2023-01-29T13:24:58.725Z,46.64
2023-01-29T13:27:34.357Z,47.58
2023-01-29T13:30:03.499Z,47.20
2023-01-29T13:32:33.151Z,46.80
2023-01-29T13:35:03.986Z,46.44
2023-01-29T13:37:40.150Z,46.38
2023-01-29T13:40:18.376Z,46.95
2023-01-29T13:42:47.773Z,46.77
2023-01-29T13:45:29.051Z,46.40
2023-01-29T13:48:09.957Z,46.36
2023-01-29T13:50:40.612Z,46.38
2023-01-29T13:53:17.766Z,46.25
2023-01-29T13:55:46.162Z,47.36
2023-01-29T13:58:16.885Z,47.13
2023-01-29T14:00:49.463Z,46.94
2023-01-29T14:03:17.933Z,47.04
2023-01-29T14:06:02.408Z,47.45
2023-01-29T14:08:39.021Z,47.29
2023-01-29T14:11:15.691Z,47.39
2023-01-29T14:13:47.674Z,47.43
2023-01-29T14:16:17.785Z,47.41
2023-01-29T14:19:02.624Z,47.32
2023-01-29T14:21:35.286Z,47.44
2023-01-29T14:24:10.283Z,47.72
2023-01-29T14:26:39.136Z,47.58
2023-01-29T14:29:21.302Z,47.52
2023-01-29T14:32:20.674Z,47.53
2023-01-29T14:34:51.071Z,47.64
2023-01-29T14:37:45.500Z,47.49
2023-01-29T14:40:23.031Z,49.46
2023-01-29T14:43:07.844Z,47.81
2023-01-29T14:45:37.970Z,46.52
2023-01-29T14:48:12.495Z,46.84
2023-01-29T14:50:42.154Z,47.00
2023-01-29T14:53:26.284Z,47.00
2023-01-29T14:55:54.817Z,46.84
2023-01-29T14:58:44.700Z,46.98
2023-01-29T15:01:36.701Z,47.14
2023-01-29T15:04:27.287Z,47.59
2023-01-29T15:07:09.533Z,46.91
2023-01-29T15:09:45.844Z,46.93
2023-01-29T15:12:18.375Z,47.17
2023-01-29T15:15:01.720Z,47.17
2023-01-29T15:17:58.242Z,47.11
2023-01-29T15:20:26.874Z,47.16
2023-01-29T15:22:57.553Z,47.16
2023-01-29T15:25:34.981Z,46.73
2023-01-29T15:28:08.703Z,46.72
2023-01-29T15:30:37.930Z,46.41
2023-01-29T15:33:07.868Z,46.64
2023-01-29T15:35:38.468Z,46.75
2023-01-29T15:38:08.005Z,46.72
2023-01-29T15:40:39.114Z,46.57
2023-01-29T15:43:31.418Z,46.50
2023-01-29T15:46:11.134Z,46.76
2023-01-29T15:48:41.813Z,46.90
2023-01-29T15:51:15.761Z,46.92
2023-01-29T15:53:52.019Z,46.98
2023-01-29T15:56:28.821Z,47.33
2023-01-29T15:58:58.450Z,47.36
2023-01-29T16:01:27.833Z,47.54
2023-01-29T16:03:59.352Z,47.35
2023-01-29T16:06:35.026Z,47.20
2023-01-29T16:09:05.638Z,47.30
2023-01-29T16:11:35.074Z,47.23
2023-01-29T16:14:04.342Z,47.23
2023-01-29T16:24:41.177Z,47.82
2023-01-29T16:26:38.237Z,47.60
2023-01-29T16:27:15.946Z,47.44
2023-01-29T16:30:39.796Z,47.73
2023-01-29T16:33:46.651Z,47.71
2023-01-29T16:36:25.053Z,47.34
2023-01-29T16:39:06.493Z,47.03
2023-01-29T16:41:36.232Z,46.97
2023-01-29T16:44:17.207Z,46.97
2023-01-29T16:46:46.999Z,46.93
2023-01-29T16:49:42.745Z,47.03
2023-01-29T16:52:36.897Z,46.92
2023-01-29T16:55:11.771Z,46.55
2023-01-29T16:57:40.432Z,46.90
2023-01-29T17:00:19.023Z,47.10
2023-01-29T17:02:47.499Z,47.37
2023-01-29T17:05:31.336Z,47.55
2023-01-29T17:08:25.038Z,47.37
2023-01-29T17:10:53.639Z,47.31
2023-01-29T17:13:31.452Z,47.99
2023-01-29T17:16:03.147Z,47.53
2023-01-29T17:18:31.630Z,47.13
2023-01-29T17:21:00.666Z,46.68
2023-01-29T17:23:29.301Z,46.63
2023-01-29T17:25:57.945Z,46.65
2023-01-29T17:28:26.913Z,46.56
2023-01-29T17:31:05.938Z,46.40
2023-01-29T17:33:42.105Z,46.12
2023-01-29T17:36:15.503Z,45.79
2023-01-29T17:38:44.348Z,46.01
2023-01-29T17:41:18.165Z,45.78
2023-01-29T17:43:47.157Z,45.41
2023-01-29T17:46:16.833Z,45.61
2023-01-29T17:48:46.217Z,45.66
2023-01-29T17:51:16.601Z,45.54
2023-01-29T17:53:48.010Z,45.33
2023-01-29T17:56:17.852Z,45.26
2023-01-29T17:58:47.373Z,44.75
2023-01-29T18:01:16.400Z,44.90
2023-01-29T18:03:47.986Z,44.39
2023-01-29T18:06:22.593Z,44.25
2023-01-29T18:08:51.641Z,44.29
2023-01-29T18:11:20.268Z,44.49
2023-01-29T18:13:49.022Z,44.30
2023-01-29T18:16:22.267Z,44.66
2023-01-29T18:18:52.034Z,44.30
2023-01-29T18:21:20.766Z,44.15
2023-01-29T18:23:49.283Z,43.53
2023-01-29T18:26:18.277Z,43.87
2023-01-29T18:28:46.836Z,43.86
2023-01-29T18:31:15.667Z,43.46
2023-01-29T18:33:44.315Z,43.01
2023-01-29T18:36:12.808Z,43.03
2023-01-29T18:38:42.199Z,42.73
2023-01-29T18:41:11.361Z,43.05
2023-01-29T18:43:40.602Z,42.70
2023-01-29T18:46:09.374Z,43.12
2023-01-29T18:48:45.695Z,43.03
2023-01-29T18:51:14.464Z,43.40
2023-01-29T18:53:47.249Z,43.42
2023-01-29T18:56:16.322Z,43.39
2023-01-29T18:58:52.253Z,43.24
2023-01-29T19:01:24.742Z,43.01
2023-01-29T19:03:57.092Z,42.88
2023-01-29T19:06:26.569Z,43.14
2023-01-29T19:09:16.577Z,42.89
2023-01-29T19:11:46.842Z,43.03
2023-01-29T19:14:22.278Z,43.23
2023-01-29T19:16:51.323Z,42.79
2023-01-29T19:19:20.547Z,43.10
2023-01-29T19:21:52.712Z,43.11
2023-01-29T19:24:21.596Z,43.16
2023-01-29T19:26:50.179Z,43.43
2023-01-29T19:29:18.823Z,43.03
2023-01-29T19:31:49.214Z,42.87
2023-01-29T19:34:17.879Z,43.05
2023-01-29T19:36:46.461Z,43.00
2023-01-29T19:39:16.240Z,43.23
2023-01-29T19:41:45.506Z,42.92
2023-01-29T19:44:14.190Z,43.00
2023-01-29T19:46:42.957Z,42.95
2023-01-29T19:49:11.752Z,43.16
2023-01-29T19:51:41.741Z,43.25
2023-01-29T19:54:10.298Z,43.03
2023-01-29T19:56:39.363Z,43.12
2023-01-29T19:59:11.376Z,42.97
2023-01-29T20:01:40.377Z,42.91
2023-01-29T20:08:48.721Z,42.08
2023-01-29T20:11:45.505Z,42.53
2023-01-29T20:14:43.412Z,42.35
2023-01-29T20:17:12.376Z,42.65
2023-01-29T20:19:40.813Z,42.80
2023-01-29T20:22:09.263Z,42.78
2023-01-29T20:24:42.498Z,42.62
2023-01-29T20:27:11.951Z,42.38
2023-01-29T20:29:41.974Z,42.45
2023-01-29T20:32:11.793Z,42.81
2023-01-29T20:34:41.184Z,42.79
2023-01-29T20:37:09.463Z,42.64
2023-01-29T20:39:37.932Z,42.65
2023-01-29T20:42:06.275Z,42.77
2023-01-29T20:44:35.391Z,42.60
2023-01-29T20:47:04.396Z,42.38
2023-01-29T20:49:34.443Z,43.16
2023-01-29T20:52:03.032Z,42.83
2023-01-29T20:54:33.488Z,42.62
2023-01-29T20:57:04.348Z,42.97
2023-01-29T20:59:34.020Z,43.03
2023-01-29T21:02:03.558Z,43.00
2023-01-29T21:04:34.634Z,42.72
2023-01-29T21:07:04.186Z,43.00
2023-01-29T21:09:33.552Z,42.90
2023-01-29T21:12:01.959Z,42.95
2023-01-29T21:14:34.233Z,42.72
2023-01-29T21:17:03.568Z,42.56
2023-01-29T21:19:32.091Z,42.70
2023-01-29T21:22:00.553Z,42.39
2023-01-29T21:24:29.278Z,42.38
2023-01-29T21:26:58.287Z,42.07
2023-01-29T21:29:27.141Z,42.42
2023-01-29T21:31:55.649Z,42.67
2023-01-29T21:34:24.366Z,42.57
2023-01-29T21:36:53.006Z,42.23
2023-01-29T21:39:24.474Z,42.39
2023-01-29T21:42:12.037Z,42.62
2023-01-29T21:44:40.899Z,42.17
2023-01-29T21:47:12.920Z,41.99
2023-01-29T21:49:42.250Z,42.02
2023-01-29T21:52:12.731Z,42.47
2023-01-29T21:54:41.535Z,42.63
2023-01-29T21:57:12.616Z,42.99
2023-01-29T21:59:42.463Z,42.78
2023-01-29T22:02:17.188Z,43.00
2023-01-29T22:04:45.962Z,42.98
2023-01-29T22:07:14.773Z,42.92
2023-01-29T22:09:43.384Z,42.90
2023-01-29T22:12:16.055Z,43.12
2023-01-29T22:14:47.814Z,43.16
2023-01-29T22:17:20.314Z,43.27
2023-01-29T22:19:49.168Z,43.17
2023-01-29T22:22:18.572Z,42.95
2023-01-29T22:24:47.040Z,42.82
2023-01-29T22:27:15.992Z,42.67
2023-01-29T22:29:44.467Z,42.69
2023-01-29T22:32:13.527Z,42.35
2023-01-29T22:34:42.152Z,42.51
2023-01-29T22:37:10.801Z,42.86
2023-01-29T22:39:39.698Z,42.76
2023-01-29T22:42:08.343Z,42.75
2023-01-29T22:44:36.824Z,42.32
2023-01-29T22:47:05.296Z,42.53
2023-01-29T22:49:33.833Z,42.62
2023-01-29T22:52:11.612Z,42.96
2023-01-29T22:54:41.960Z,42.69
2023-01-29T22:57:12.352Z,42.62
2023-01-29T22:59:41.358Z,42.68
2023-01-29T23:02:10.007Z,42.58
2023-01-29T23:04:39.359Z,42.64
2023-01-29T23:07:07.876Z,42.97
2023-01-29T23:09:36.346Z,43.24
2023-01-29T23:12:05.415Z,43.07
2023-01-29T23:14:35.883Z,42.96
2023-01-29T23:17:04.278Z,42.47
2023-01-29T23:19:32.624Z,42.62
2023-01-29T23:22:01.006Z,42.57
2023-01-29T23:24:29.496Z,42.65
2023-01-29T23:27:16.100Z,42.04
2023-01-29T23:29:45.573Z,41.99
2023-01-29T23:32:16.217Z,42.38
2023-01-29T23:34:44.650Z,42.59
2023-01-29T23:37:13.361Z,42.83
2023-01-29T23:39:42.296Z,43.15
2023-01-29T23:42:11.485Z,43.11
2023-01-29T23:44:40.683Z,43.23
2023-01-29T23:47:09.268Z,43.35
2023-01-29T23:49:38.087Z,43.35
2023-01-29T23:52:06.591Z,43.32
2023-01-29T23:54:35.571Z,43.62
2023-01-29T23:57:04.093Z,43.47
2023-01-29T23:59:32.860Z,43.67
